sensor_id;sensor_type;location;lat;lon;timestamp;pressure;altitude;pressure_sealevel;temperature;humidity
17764;BME280;22245;52.832;13.816;2023-12-07T00:00:50;101497.91;;;0.54;97.94
17764;BME280;22245;52.832;13.816;2023-12-07T00:04:12;101502.34;;;0.52;98.41
17764;BME280;22245;52.832;13.816;2023-12-07T00:07:33;101505.81;;;0.52;98.71
17764;BME280;22245;52.832;13.816;2023-12-07T00:10:56;101499.75;;;0.50;97.89
17764;BME280;22245;52.832;13.816;2023-12-07T00:14:17;101502.25;;;0.55;98.56
17764;BME280;22245;52.832;13.816;2023-12-07T00:17:39;101504.91;;;0.53;97.72
17764;BME280;22245;52.832;13.816;2023-12-07T00:21:01;101500.53;;;0.54;98.20
17764;BME280;22245;52.832;13.816;2023-12-07T00:24:22;101497.91;;;0.54;98.27
17764;BME280;22245;52.832;13.816;2023-12-07T00:27:45;101500.47;;;0.55;97.93
17764;BME280;22245;52.832;13.816;2023-12-07T00:31:07;101493.47;;;0.56;98.39
17764;BME280;22245;52.832;13.816;2023-12-07T00:34:30;101502.34;;;0.52;98.38
17764;BME280;22245;52.832;13.816;2023-12-07T00:37:52;101507.44;;;0.56;98.51
17764;BME280;22245;52.832;13.816;2023-12-07T00:41:13;101505.66;;;0.59;98.03
17764;BME280;22245;52.832;13.816;2023-12-07T00:44:40;101510.81;;;0.60;98.43
17764;BME280;22245;52.832;13.816;2023-12-07T00:48:01;101502.94;;;0.62;97.98
17764;BME280;22245;52.832;13.816;2023-12-07T00:51:23;101504.56;;;0.64;98.31
17764;BME280;22245;52.832;13.816;2023-12-07T00:54:45;101514.97;;;0.67;98.04
17764;BME280;22245;52.832;13.816;2023-12-07T00:58:06;101514.06;;;0.68;97.89
17764;BME280;22245;52.832;13.816;2023-12-07T01:01:29;101519.25;;;0.70;97.56
17764;BME280;22245;52.832;13.816;2023-12-07T01:04:51;101519.19;;;0.71;97.93
17764;BME280;22245;52.832;13.816;2023-12-07T01:08:12;101539.25;;;0.74;97.79
17764;BME280;22245;52.832;13.816;2023-12-07T01:11:34;101538.38;;;0.74;97.20
17764;BME280;22245;52.832;13.816;2023-12-07T01:14:55;101536.63;;;0.74;97.39
17764;BME280;22245;52.832;13.816;2023-12-07T01:18:18;101529.66;;;0.73;97.81
17764;BME280;22245;52.832;13.816;2023-12-07T01:21:40;101529.56;;;0.76;97.21
17764;BME280;22245;52.832;13.816;2023-12-07T01:25:02;101527.81;;;0.77;97.52
17764;BME280;22245;52.832;13.816;2023-12-07T01:28:24;101541.78;;;0.76;97.28
17764;BME280;22245;52.832;13.816;2023-12-07T01:31:46;101548.78;;;0.77;96.71
17764;BME280;22245;52.832;13.816;2023-12-07T01:35:09;101547.94;;;0.75;96.74
17764;BME280;22245;52.832;13.816;2023-12-07T01:38:31;101559.34;;;0.74;97.34
17764;BME280;22245;52.832;13.816;2023-12-07T01:41:53;101569.09;;;0.70;96.46
17764;BME280;22245;52.832;13.816;2023-12-07T01:45:14;101574.41;;;0.67;97.06
17764;BME280;22245;52.832;13.816;2023-12-07T01:48:36;101571.72;;;0.68;96.99
17764;BME280;22245;52.832;13.816;2023-12-07T01:51:59;101571.72;;;0.68;97.45
17764;BME280;22245;52.832;13.816;2023-12-07T01:55:22;101581.31;;;0.69;97.71
17764;BME280;22245;52.832;13.816;2023-12-07T01:58:44;101571.81;;;0.67;97.31
17764;BME280;22245;52.832;13.816;2023-12-07T02:02:06;101573.56;;;0.66;97.81
17764;BME280;22245;52.832;13.816;2023-12-07T02:05:27;101570.03;;;0.67;97.26
17764;BME280;22245;52.832;13.816;2023-12-07T02:08:50;101577.88;;;0.67;97.69
17764;BME280;22245;52.832;13.816;2023-12-07T02:12:12;101583.13;;;0.67;97.84
17764;BME280;22245;52.832;13.816;2023-12-07T02:15:33;101585.84;;;0.64;97.11
17764;BME280;22245;52.832;13.816;2023-12-07T02:19:00;101588.38;;;0.67;97.35
17764;BME280;22245;52.832;13.816;2023-12-07T02:22:27;101577.94;;;0.66;97.89
17764;BME280;22245;52.832;13.816;2023-12-07T02:25:53;101582.31;;;0.65;97.92
17764;BME280;22245;52.832;13.816;2023-12-07T02:29:16;101582.28;;;0.67;97.41
17764;BME280;22245;52.832;13.816;2023-12-07T02:32:38;101586.56;;;0.69;97.35
17764;BME280;22245;52.832;13.816;2023-12-07T02:36:00;101590.91;;;0.70;96.99
17764;BME280;22245;52.832;13.816;2023-12-07T02:39:23;101589.16;;;0.71;97.41
17764;BME280;22245;52.832;13.816;2023-12-07T02:42:44;101588.38;;;0.67;97.01
17764;BME280;22245;52.832;13.816;2023-12-07T02:46:07;101588.34;;;0.69;97.08
17764;BME280;22245;52.832;13.816;2023-12-07T02:49:29;101590.97;;;0.69;96.58
17764;BME280;22245;52.832;13.816;2023-12-07T02:52:51;101593.59;;;0.69;96.87
17764;BME280;22245;52.832;13.816;2023-12-07T02:56:13;101595.44;;;0.65;97.07
17764;BME280;22245;52.832;13.816;2023-12-07T02:59:35;101600.63;;;0.67;97.67
17764;BME280;22245;52.832;13.816;2023-12-07T03:02:58;101608.44;;;0.68;97.43
17764;BME280;22245;52.832;13.816;2023-12-07T03:06:19;101611.97;;;0.67;97.38
17764;BME280;22245;52.832;13.816;2023-12-07T03:09:41;101629.47;;;0.67;97.07
17764;BME280;22245;52.832;13.816;2023-12-07T03:13:02;101625.97;;;0.66;97.10
17764;BME280;22245;52.832;13.816;2023-12-07T03:16:23;101619.13;;;0.62;97.36
17764;BME280;22245;52.832;13.816;2023-12-07T03:19:47;101617.47;;;0.60;98.12
17764;BME280;22245;52.832;13.816;2023-12-07T03:23:08;101622.63;;;0.61;98.20
17764;BME280;22245;52.832;13.816;2023-12-07T03:26:30;101624.34;;;0.62;97.57
17764;BME280;22245;52.832;13.816;2023-12-07T03:29:52;101629.50;;;0.65;97.71
17764;BME280;22245;52.832;13.816;2023-12-07T03:33:13;101621.75;;;0.62;97.78
17764;BME280;22245;52.832;13.816;2023-12-07T03:36:36;101637.44;;;0.64;97.66
17764;BME280;22245;52.832;13.816;2023-12-07T03:39:59;101628.75;;;0.62;97.54
17764;BME280;22245;52.832;13.816;2023-12-07T03:43:21;101636.56;;;0.63;97.40
17764;BME280;22245;52.832;13.816;2023-12-07T03:46:43;101645.34;;;0.62;98.45
17764;BME280;22245;52.832;13.816;2023-12-07T03:50:05;101642.72;;;0.62;97.78
17764;BME280;22245;52.832;13.816;2023-12-07T03:53:28;101646.25;;;0.61;98.09
17764;BME280;22245;52.832;13.816;2023-12-07T03:56:49;101642.78;;;0.61;97.64
17764;BME280;22245;52.832;13.816;2023-12-07T04:00:13;101642.78;;;0.61;97.98
17764;BME280;22245;52.832;13.816;2023-12-07T04:03:35;101646.31;;;0.58;98.08
17764;BME280;22245;52.832;13.816;2023-12-07T04:06:57;101643.72;;;0.58;97.74
17764;BME280;22245;52.832;13.816;2023-12-07T04:10:20;101648.09;;;0.57;98.73
17764;BME280;22245;52.832;13.816;2023-12-07T04:13:42;101641.91;;;0.60;97.92
17764;BME280;22245;52.832;13.816;2023-12-07T04:17:03;101649.75;;;0.60;98.69
17764;BME280;22245;52.832;13.816;2023-12-07T04:20:25;101646.25;;;0.61;97.76
17764;BME280;22245;52.832;13.816;2023-12-07T04:23:46;101648.94;;;0.58;98.34
17764;BME280;22245;52.832;13.816;2023-12-07T04:27:10;101653.25;;;0.61;97.96
17764;BME280;22245;52.832;13.816;2023-12-07T04:30:32;101661.13;;;0.61;98.62
17764;BME280;22245;52.832;13.816;2023-12-07T04:33:53;101649.75;;;0.60;98.31
17764;BME280;22245;52.832;13.816;2023-12-07T04:37:15;101654.22;;;0.56;98.57
17764;BME280;22245;52.832;13.816;2023-12-07T04:40:37;101659.44;;;0.58;98.64
17764;BME280;22245;52.832;13.816;2023-12-07T04:44:00;101661.97;;;0.61;98.17
17764;BME280;22245;52.832;13.816;2023-12-07T04:47:22;101675.06;;;0.61;98.48
17764;BME280;22245;52.832;13.816;2023-12-07T04:50:44;101669.81;;;0.61;98.53
17764;BME280;22245;52.832;13.816;2023-12-07T04:54:05;101680.38;;;0.60;98.37
17764;BME280;22245;52.832;13.816;2023-12-07T04:57:38;101684.72;;;0.61;98.26
17764;BME280;22245;52.832;13.816;2023-12-07T05:01:01;101684.75;;;0.59;98.40
17764;BME280;22245;52.832;13.816;2023-12-07T05:04:24;101684.72;;;0.61;99.08
17764;BME280;22245;52.832;13.816;2023-12-07T05:07:46;101690.81;;;0.61;98.92
17764;BME280;22245;52.832;13.816;2023-12-07T05:11:07;101698.72;;;0.60;98.46
17764;BME280;22245;52.832;13.816;2023-12-07T05:14:30;101694.31;;;0.60;98.53
17764;BME280;22245;52.832;13.816;2023-12-07T05:17:53;101693.59;;;0.55;98.21
17764;BME280;22245;52.832;13.816;2023-12-07T05:21:15;101703.19;;;0.56;98.56
17764;BME280;22245;52.832;13.816;2023-12-07T05:24:36;101694.41;;;0.57;98.29
17764;BME280;22245;52.832;13.816;2023-12-07T05:27:58;101699.66;;;0.57;98.48
17764;BME280;22245;52.832;13.816;2023-12-07T05:31:19;101694.38;;;0.59;98.62
17764;BME280;22245;52.832;13.816;2023-12-07T05:34:42;101691.69;;;0.62;98.64
17764;BME280;22245;52.832;13.816;2023-12-07T05:38:04;101698.63;;;0.63;98.81
17764;BME280;22245;52.832;13.816;2023-12-07T05:41:25;101696.03;;;0.63;98.56
17764;BME280;22245;52.832;13.816;2023-12-07T05:44:47;101695.97;;;0.64;98.36
17764;BME280;22245;52.832;13.816;2023-12-07T05:48:10;101698.63;;;0.63;98.54
17764;BME280;22245;52.832;13.816;2023-12-07T05:51:33;101692.53;;;0.62;98.66
17764;BME280;22245;52.832;13.816;2023-12-07T05:54:54;101695.13;;;0.64;98.55
17764;BME280;22245;52.832;13.816;2023-12-07T05:58:16;101701.19;;;0.64;98.87
17764;BME280;22245;52.832;13.816;2023-12-07T06:01:38;101698.56;;;0.64;98.38
17764;BME280;22245;52.832;13.816;2023-12-07T06:04:59;101704.63;;;0.66;98.46
17764;BME280;22245;52.832;13.816;2023-12-07T06:08:22;101710.75;;;0.67;98.96
17764;BME280;22245;52.832;13.816;2023-12-07T06:11:45;101702.91;;;0.65;98.87
17764;BME280;22245;52.832;13.816;2023-12-07T06:15:07;101702.84;;;0.68;98.68
17764;BME280;22245;52.832;13.816;2023-12-07T06:18:28;101705.44;;;0.68;99.05
17764;BME280;22245;52.832;13.816;2023-12-07T06:21:50;101708.88;;;0.70;98.90
17764;BME280;22245;52.832;13.816;2023-12-07T06:25:12;101717.66;;;0.69;99.05
17764;BME280;22245;52.832;13.816;2023-12-07T06:28:35;101723.72;;;0.71;98.88
17764;BME280;22245;52.832;13.816;2023-12-07T06:31:57;101728.06;;;0.72;99.58
17764;BME280;22245;52.832;13.816;2023-12-07T06:35:18;101732.38;;;0.75;98.91
17764;BME280;22245;52.832;13.816;2023-12-07T06:38:40;101741.94;;;0.78;98.99
17764;BME280;22245;52.832;13.816;2023-12-07T06:42:03;101747.16;;;0.78;99.05
17764;BME280;22245;52.832;13.816;2023-12-07T06:45:24;101745.38;;;0.78;98.78
17764;BME280;22245;52.832;13.816;2023-12-07T06:48:46;101758.47;;;0.80;98.47
17764;BME280;22245;52.832;13.816;2023-12-07T06:52:07;101755.03;;;0.78;98.70
17764;BME280;22245;52.832;13.816;2023-12-07T06:55:31;101756.66;;;0.82;98.43
17764;BME280;22245;52.832;13.816;2023-12-07T06:58:59;101757.56;;;0.81;98.90
17764;BME280;22245;52.832;13.816;2023-12-07T07:02:21;101754.13;;;0.79;98.26
17764;BME280;22245;52.832;13.816;2023-12-07T07:05:43;101754.06;;;0.80;98.26
17764;BME280;22245;52.832;13.816;2023-12-07T07:09:05;101756.66;;;0.82;98.81
17764;BME280;22245;52.832;13.816;2023-12-07T07:12:27;101757.59;;;0.79;99.24
17764;BME280;22245;52.832;13.816;2023-12-07T07:15:51;101757.59;;;0.79;98.78
17764;BME280;22245;52.832;13.816;2023-12-07T07:19:14;101759.31;;;0.80;99.31
17764;BME280;22245;52.832;13.816;2023-12-07T07:22:37;101756.66;;;0.82;99.22
17764;BME280;22245;52.832;13.816;2023-12-07T07:25:59;101771.50;;;0.83;98.64
17764;BME280;22245;52.832;13.816;2023-12-07T07:29:20;101764.38;;;0.86;99.22
17764;BME280;22245;52.832;13.816;2023-12-07T07:32:43;101765.19;;;0.89;98.69
17764;BME280;22245;52.832;13.816;2023-12-07T07:36:06;101775.66;;;0.90;99.35
17764;BME280;22245;52.832;13.816;2023-12-07T07:39:27;101772.09;;;0.93;99.06
17764;BME280;22245;52.832;13.816;2023-12-07T07:42:48;101775.56;;;0.93;99.14
17764;BME280;22245;52.832;13.816;2023-12-07T07:46:10;101768.63;;;0.92;99.35
17764;BME280;22245;52.832;13.816;2023-12-07T07:49:32;101767.72;;;0.93;98.92
17764;BME280;22245;52.832;13.816;2023-12-07T07:52:54;101770.31;;;0.95;99.49
17764;BME280;22245;52.832;13.816;2023-12-07T07:56:16;101777.22;;;0.97;99.58
17764;BME280;22245;52.832;13.816;2023-12-07T07:59:37;101780.66;;;0.99;99.38
17764;BME280;22245;52.832;13.816;2023-12-07T08:02:59;101771.03;;;1.00;98.98
17764;BME280;22245;52.832;13.816;2023-12-07T08:06:22;101782.34;;;1.02;99.07
17764;BME280;22245;52.832;13.816;2023-12-07T08:09:43;101778.75;;;1.05;98.96
17764;BME280;22245;52.832;13.816;2023-12-07T08:13:05;101777.81;;;1.07;99.28
17764;BME280;22245;52.832;13.816;2023-12-07T08:16:28;101783.88;;;1.09;98.74
17764;BME280;22245;52.832;13.816;2023-12-07T08:19:49;101787.31;;;1.11;99.04
17764;BME280;22245;52.832;13.816;2023-12-07T08:23:13;101782.91;;;1.12;99.42
17764;BME280;22245;52.832;13.816;2023-12-07T08:26:34;101781.97;;;1.14;99.12
17764;BME280;22245;52.832;13.816;2023-12-07T08:29:55;101788.91;;;1.17;99.01
17764;BME280;22245;52.832;13.816;2023-12-07T08:33:17;101781.84;;;1.19;99.28
17764;BME280;22245;52.832;13.816;2023-12-07T08:36:39;101788.75;;;1.22;99.73
17764;BME280;22245;52.832;13.816;2023-12-07T08:40:02;101794.81;;;1.24;99.08
17764;BME280;22245;52.832;13.816;2023-12-07T08:43:24;101797.31;;;1.28;99.49
17764;BME280;22245;52.832;13.816;2023-12-07T08:46:46;101802.56;;;1.28;99.19
17764;BME280;22245;52.832;13.816;2023-12-07T08:50:08;101799.03;;;1.29;99.27
17764;BME280;22245;52.832;13.816;2023-12-07T08:53:30;101802.47;;;1.32;98.80
17764;BME280;22245;52.832;13.816;2023-12-07T08:56:54;101819.00;;;1.35;99.22
17764;BME280;22245;52.832;13.816;2023-12-07T09:00:17;101816.22;;;1.40;99.23
17764;BME280;22245;52.832;13.816;2023-12-07T09:03:43;101815.31;;;1.41;99.21
17764;BME280;22245;52.832;13.816;2023-12-07T09:07:06;101813.47;;;1.44;99.51
17764;BME280;22245;52.832;13.816;2023-12-07T09:10:27;101812.34;;;1.53;99.78
17764;BME280;22245;52.832;13.816;2023-12-07T09:13:51;101814.00;;;1.56;99.69
17764;BME280;22245;52.832;13.816;2023-12-07T09:17:12;101811.28;;;1.59;99.82
17764;BME280;22245;52.832;13.816;2023-12-07T09:20:33;101819.03;;;1.64;99.38
17764;BME280;22245;52.832;13.816;2023-12-07T09:23:55;101818.94;;;1.67;99.51
17764;BME280;22245;52.832;13.816;2023-12-07T09:27:16;101809.25;;;1.69;99.54
17764;BME280;22245;52.832;13.816;2023-12-07T09:30:39;101807.41;;;1.72;99.42
17764;BME280;22245;52.832;13.816;2023-12-07T09:34:01;101816.03;;;1.76;99.17
17764;BME280;22245;52.832;13.816;2023-12-07T09:37:32;101822.09;;;1.78;99.08
17764;BME280;22245;52.832;13.816;2023-12-07T09:40:54;101815.91;;;1.81;99.06
17764;BME280;22245;52.832;13.816;2023-12-07T09:44:16;101812.41;;;1.80;99.31
17764;BME280;22245;52.832;13.816;2023-12-07T09:47:39;101807.84;;;1.85;99.04
17764;BME280;22245;52.832;13.816;2023-12-07T09:51:04;101808.63;;;1.89;98.67
17764;BME280;22245;52.832;13.816;2023-12-07T09:54:27;101813.84;;;1.91;99.09
17764;BME280;22245;52.832;13.816;2023-12-07T09:57:51;101821.63;;;1.94;98.52
17764;BME280;22245;52.832;13.816;2023-12-07T10:01:14;101818.91;;;1.97;98.34
17764;BME280;22245;52.832;13.816;2023-12-07T10:04:38;101812.78;;;1.96;98.64
17764;BME280;22245;52.832;13.816;2023-12-07T10:08:00;101814.41;;;2.00;97.74
17764;BME280;22245;52.832;13.816;2023-12-07T10:11:22;101816.00;;;2.05;97.65
17764;BME280;22245;52.832;13.816;2023-12-07T10:14:44;101821.22;;;2.06;97.56
17764;BME280;22245;52.832;13.816;2023-12-07T10:18:05;101819.41;;;2.08;97.64
17764;BME280;22245;52.832;13.816;2023-12-07T10:21:32;101829.13;;;2.06;97.51
17764;BME280;22245;52.832;13.816;2023-12-07T10:24:54;101829.16;;;2.05;97.84
17764;BME280;22245;52.832;13.816;2023-12-07T10:28:16;101828.25;;;2.06;97.93
17764;BME280;22245;52.832;13.816;2023-12-07T10:31:38;101825.53;;;2.09;97.65
17764;BME280;22245;52.832;13.816;2023-12-07T10:35:00;101825.47;;;2.10;97.40
17764;BME280;22245;52.832;13.816;2023-12-07T10:38:23;101817.50;;;2.13;97.13
17764;BME280;22245;52.832;13.816;2023-12-07T10:41:45;101811.22;;;2.17;97.07
17764;BME280;22245;52.832;13.816;2023-12-07T10:45:09;101805.94;;;2.19;97.01
17764;BME280;22245;52.832;13.816;2023-12-07T10:48:35;101812.13;;;2.16;96.87
17764;BME280;22245;52.832;13.816;2023-12-07T10:52:00;101812.00;;;2.21;96.76
17764;BME280;22245;52.832;13.816;2023-12-07T10:55:28;101812.72;;;2.25;96.49
17764;BME280;22245;52.832;13.816;2023-12-07T10:58:52;101808.28;;;2.27;96.34
17764;BME280;22245;52.832;13.816;2023-12-07T11:02:16;101807.34;;;2.29;96.47
17764;BME280;22245;52.832;13.816;2023-12-07T11:05:41;101808.22;;;2.30;96.41
17764;BME280;22245;52.832;13.816;2023-12-07T11:09:06;101808.38;;;2.24;96.40
17764;BME280;22245;52.832;13.816;2023-12-07T11:12:40;101803.94;;;2.26;96.86
17764;BME280;22245;52.832;13.816;2023-12-07T11:16:09;101816.13;;;2.28;96.46
17764;BME280;22245;52.832;13.816;2023-12-07T11:19:48;101820.78;;;2.20;96.75
17764;BME280;22245;52.832;13.816;2023-12-07T11:23:10;101815.47;;;2.22;96.71
17764;BME280;22245;52.832;13.816;2023-12-07T11:26:32;101813.47;;;2.30;96.29
17764;BME280;22245;52.832;13.816;2023-12-07T11:29:54;101802.03;;;2.31;95.99
17764;BME280;22245;52.832;13.816;2023-12-07T11:33:16;101794.16;;;2.31;96.13
17764;BME280;22245;52.832;13.816;2023-12-07T11:36:38;101779.91;;;2.37;96.11
17764;BME280;22245;52.832;13.816;2023-12-07T11:39:59;101772.91;;;2.37;96.32
17764;BME280;22245;52.832;13.816;2023-12-07T11:43:36;101779.00;;;2.38;96.13
17764;BME280;22245;52.832;13.816;2023-12-07T11:47:00;101780.72;;;2.39;95.96
17764;BME280;22245;52.832;13.816;2023-12-07T11:50:21;101786.06;;;2.37;95.86
17764;BME280;22245;52.832;13.816;2023-12-07T11:53:43;101792.16;;;2.38;95.77
17764;BME280;22245;52.832;13.816;2023-12-07T11:57:05;101794.84;;;2.36;96.26
17764;BME280;22245;52.832;13.816;2023-12-07T12:00:27;101796.72;;;2.33;95.79
17764;BME280;22245;52.832;13.816;2023-12-07T12:03:50;101790.41;;;2.38;95.82
17764;BME280;22245;52.832;13.816;2023-12-07T12:07:11;101791.25;;;2.39;96.06
17764;BME280;22245;52.832;13.816;2023-12-07T12:10:33;101794.06;;;2.34;95.78
17764;BME280;22245;52.832;13.816;2023-12-07T12:13:56;101792.13;;;2.39;95.49
17764;BME280;22245;52.832;13.816;2023-12-07T12:17:17;101792.94;;;2.41;95.68
17764;BME280;22245;52.832;13.816;2023-12-07T12:20:44;101797.31;;;2.41;95.82
17764;BME280;22245;52.832;13.816;2023-12-07T12:24:06;101806.91;;;2.42;95.75
17764;BME280;22245;52.832;13.816;2023-12-07T12:27:29;101803.34;;;2.44;95.57
17764;BME280;22245;52.832;13.816;2023-12-07T12:30:51;101798.53;;;2.30;96.38
17764;BME280;22245;52.832;13.816;2023-12-07T12:34:13;101801.94;;;2.34;96.19
17764;BME280;22245;52.832;13.816;2023-12-07T12:37:36;101787.78;;;2.38;95.89
17764;BME280;22245;52.832;13.816;2023-12-07T12:40:59;101786.84;;;2.39;95.60
17764;BME280;22245;52.832;13.816;2023-12-07T12:44:21;101788.47;;;2.43;95.74
17764;BME280;22245;52.832;13.816;2023-12-07T12:47:55;101785.97;;;2.39;95.69
17764;BME280;22245;52.832;13.816;2023-12-07T12:51:19;101802.84;;;2.33;95.71
17764;BME280;22245;52.832;13.816;2023-12-07T12:54:43;101794.75;;;2.39;95.72
17764;BME280;22245;52.832;13.816;2023-12-07T12:58:06;101798.13;;;2.43;95.89
17764;BME280;22245;52.832;13.816;2023-12-07T13:01:28;101794.78;;;2.38;96.11
17764;BME280;22245;52.832;13.816;2023-12-07T13:04:50;101796.50;;;2.39;96.34
17764;BME280;22245;52.832;13.816;2023-12-07T13:08:13;101796.47;;;2.40;96.30
17764;BME280;22245;52.832;13.816;2023-12-07T13:11:36;101800.84;;;2.40;96.43
17764;BME280;22245;52.832;13.816;2023-12-07T13:14:57;101797.38;;;2.39;96.65
17764;BME280;22245;52.832;13.816;2023-12-07T13:18:20;101797.38;;;2.39;96.66
17764;BME280;22245;52.832;13.816;2023-12-07T13:21:41;101801.94;;;2.34;96.49
17764;BME280;22245;52.832;13.816;2023-12-07T13:25:04;101801.03;;;2.35;96.90
17764;BME280;22245;52.832;13.816;2023-12-07T13:28:27;101791.31;;;2.37;96.84
17764;BME280;22245;52.832;13.816;2023-12-07T13:31:50;101789.53;;;2.38;96.77
17764;BME280;22245;52.832;13.816;2023-12-07T13:35:12;101794.78;;;2.38;96.48
17764;BME280;22245;52.832;13.816;2023-12-07T13:38:34;101800.13;;;2.36;96.69
17764;BME280;22245;52.832;13.816;2023-12-07T13:41:56;101789.63;;;2.35;96.46
17764;BME280;22245;52.832;13.816;2023-12-07T13:45:18;101789.69;;;2.33;96.87
17764;BME280;22245;52.832;13.816;2023-12-07T13:48:40;101793.25;;;2.32;96.70
17764;BME280;22245;52.832;13.816;2023-12-07T13:52:02;101789.69;;;2.33;96.90
17764;BME280;22245;52.832;13.816;2023-12-07T13:55:27;101803.75;;;2.32;97.12
17764;BME280;22245;52.832;13.816;2023-12-07T13:58:49;101800.22;;;2.33;97.05
17764;BME280;22245;52.832;13.816;2023-12-07T14:02:13;101802.88;;;2.31;97.08
17764;BME280;22245;52.832;13.816;2023-12-07T14:05:35;101804.66;;;2.31;97.37
17764;BME280;22245;52.832;13.816;2023-12-07T14:08:57;101809.94;;;2.31;96.97
17764;BME280;22245;52.832;13.816;2023-12-07T14:12:19;101814.31;;;2.30;97.10
17764;BME280;22245;52.832;13.816;2023-12-07T14:15:40;101813.47;;;2.30;97.38
17764;BME280;22245;52.832;13.816;2023-12-07T14:19:06;101810.88;;;2.28;97.29
17764;BME280;22245;52.832;13.816;2023-12-07T14:22:34;101817.00;;;2.29;96.99
17764;BME280;22245;52.832;13.816;2023-12-07T14:25:56;101812.59;;;2.29;97.17
17764;BME280;22245;52.832;13.816;2023-12-07T14:29:23;101817.91;;;2.28;97.13
17764;BME280;22245;52.832;13.816;2023-12-07T14:32:47;101824.03;;;2.28;97.27
17764;BME280;22245;52.832;13.816;2023-12-07T14:36:14;101825.81;;;2.28;96.89
17764;BME280;22245;52.832;13.816;2023-12-07T14:39:37;101819.63;;;2.29;97.15
17764;BME280;22245;52.832;13.816;2023-12-07T14:43:00;101830.19;;;2.27;97.51
17764;BME280;22245;52.832;13.816;2023-12-07T14:46:23;101829.41;;;2.24;97.77
17764;BME280;22245;52.832;13.816;2023-12-07T14:49:45;101826.84;;;2.22;97.40
17764;BME280;22245;52.832;13.816;2023-12-07T14:53:07;101833.94;;;2.20;97.88
17764;BME280;22245;52.832;13.816;2023-12-07T14:56:30;101826.97;;;2.19;97.91
17764;BME280;22245;52.832;13.816;2023-12-07T14:59:53;101834.88;;;2.17;97.90
17764;BME280;22245;52.832;13.816;2023-12-07T15:03:18;101828.78;;;2.17;97.81
17764;BME280;22245;52.832;13.816;2023-12-07T15:06:39;101823.44;;;2.19;98.15
17764;BME280;22245;52.832;13.816;2023-12-07T15:10:03;101834.88;;;2.17;98.02
17764;BME280;22245;52.832;13.816;2023-12-07T15:13:24;101833.16;;;2.16;97.60
17764;BME280;22245;52.832;13.816;2023-12-07T15:16:46;101833.22;;;2.15;97.77
17764;BME280;22245;52.832;13.816;2023-12-07T15:20:09;101832.34;;;2.14;97.95
17764;BME280;22245;52.832;13.816;2023-12-07T15:23:31;101831.53;;;2.12;97.94
17764;BME280;22245;52.832;13.816;2023-12-07T15:26:55;101824.56;;;2.11;97.57
17764;BME280;22245;52.832;13.816;2023-12-07T15:30:16;101825.47;;;2.10;97.61
17764;BME280;22245;52.832;13.816;2023-12-07T15:33:38;101821.94;;;2.11;97.92
17764;BME280;22245;52.832;13.816;2023-12-07T15:37:00;101825.47;;;2.10;97.68
17764;BME280;22245;52.832;13.816;2023-12-07T15:40:22;101822.00;;;2.10;98.26
17764;BME280;22245;52.832;13.816;2023-12-07T15:43:44;101815.03;;;2.09;97.92
17764;BME280;22245;52.832;13.816;2023-12-07T15:47:06;101815.06;;;2.07;97.98
17764;BME280;22245;52.832;13.816;2023-12-07T15:50:28;101810.63;;;2.09;98.14
17764;BME280;22245;52.832;13.816;2023-12-07T15:53:50;101801.03;;;2.08;98.27
17764;BME280;22245;52.832;13.816;2023-12-07T15:57:11;101796.66;;;2.07;98.33
17764;BME280;22245;52.832;13.816;2023-12-07T16:00:34;101799.31;;;2.07;98.01
17764;BME280;22245;52.832;13.816;2023-12-07T16:03:56;101789.69;;;2.06;98.03
17764;BME280;22245;52.832;13.816;2023-12-07T16:07:18;101787.06;;;2.06;98.29
17764;BME280;22245;52.832;13.816;2023-12-07T16:10:40;101785.38;;;2.03;98.47
17764;BME280;22245;52.832;13.816;2023-12-07T16:14:02;101792.31;;;2.06;98.79
17764;BME280;22245;52.832;13.816;2023-12-07T16:17:25;101799.41;;;2.04;98.28
17764;BME280;22245;52.832;13.816;2023-12-07T16:20:47;101793.25;;;2.05;98.50
17764;BME280;22245;52.832;13.816;2023-12-07T16:24:10;101796.78;;;2.04;98.50
17764;BME280;22245;52.832;13.816;2023-12-07T16:27:32;101795.91;;;2.03;98.53
17764;BME280;22245;52.832;13.816;2023-12-07T16:30:53;101795.06;;;2.03;98.38
17764;BME280;22245;52.832;13.816;2023-12-07T16:34:16;101796.81;;;2.02;98.50
17764;BME280;22245;52.832;13.816;2023-12-07T16:37:38;101796.00;;;2.00;98.50
17764;BME280;22245;52.832;13.816;2023-12-07T16:41:00;101807.38;;;2.01;99.01
17764;BME280;22245;52.832;13.816;2023-12-07T16:44:21;101800.41;;;2.00;98.95
17764;BME280;22245;52.832;13.816;2023-12-07T16:47:43;101808.28;;;2.00;98.98
17764;BME280;22245;52.832;13.816;2023-12-07T16:51:09;101806.50;;;2.00;99.37
17764;BME280;22245;52.832;13.816;2023-12-07T16:54:31;101796.91;;;1.99;98.93
17764;BME280;22245;52.832;13.816;2023-12-07T16:57:52;101805.66;;;2.00;98.99
17764;BME280;22245;52.832;13.816;2023-12-07T17:01:15;101811.75;;;2.00;98.95
17764;BME280;22245;52.832;13.816;2023-12-07T17:04:38;101812.63;;;2.01;99.10
17764;BME280;22245;52.832;13.816;2023-12-07T17:08:01;101806.50;;;2.00;99.14
17764;BME280;22245;52.832;13.816;2023-12-07T17:11:23;101806.47;;;2.02;99.42
17764;BME280;22245;52.832;13.816;2023-12-07T17:14:44;101808.22;;;2.01;99.32
17764;BME280;22245;52.832;13.816;2023-12-07T17:18:06;101815.28;;;2.01;99.23
17764;BME280;22245;52.832;13.816;2023-12-07T17:21:28;101821.34;;;2.03;99.14
17764;BME280;22245;52.832;13.816;2023-12-07T17:24:52;101813.44;;;2.03;98.87
17764;BME280;22245;52.832;13.816;2023-12-07T17:28:13;101817.03;;;2.00;99.30
17764;BME280;22245;52.832;13.816;2023-12-07T17:31:35;101823.16;;;2.01;99.07
17764;BME280;22245;52.832;13.816;2023-12-07T17:34:57;101825.81;;;1.99;98.95
17764;BME280;22245;52.832;13.816;2023-12-07T17:38:18;101831.13;;;1.98;98.79